createdAt,value
2023-06-11T00:00:21.611Z,22.88
2023-06-11T00:02:55.369Z,22.76
2023-06-11T00:05:23.728Z,22.83
2023-06-11T00:07:51.495Z,22.99
2023-06-11T00:10:19.585Z,22.97
2023-06-11T00:12:48.716Z,22.83
2023-06-11T00:15:16.740Z,22.58
2023-06-11T00:17:44.642Z,22.49
2023-06-11T00:20:12.973Z,22.28
2023-06-11T00:22:41.732Z,22.39
2023-06-11T00:25:11.851Z,22.54
2023-06-11T00:27:39.940Z,22.58
2023-06-11T00:30:09.678Z,22.40
2023-06-11T00:32:37.867Z,22.24
2023-06-11T00:35:08.281Z,21.99
2023-06-11T00:37:37.009Z,22.29
2023-06-11T00:40:05.722Z,22.26
2023-06-11T00:42:34.743Z,22.51
2023-06-11T00:45:04.644Z,22.58
2023-06-11T00:47:35.190Z,22.64
2023-06-11T00:50:05.451Z,22.36
2023-06-11T00:52:33.341Z,22.42
2023-06-11T00:55:01.740Z,22.34
2023-06-11T00:57:29.563Z,22.13
2023-06-11T00:59:58.221Z,22.20
2023-06-11T01:02:33.602Z,22.01
2023-06-11T01:05:05.745Z,21.97
2023-06-11T01:07:37.379Z,22.08
2023-06-11T01:10:05.927Z,22.08
2023-06-11T01:12:34.141Z,21.81
2023-06-11T01:15:02.449Z,21.78
2023-06-11T01:17:35.690Z,21.72
2023-06-11T01:20:14.180Z,21.90
2023-06-11T01:22:59.264Z,22.01
2023-06-11T01:25:32.923Z,22.01
2023-06-11T01:28:05.910Z,22.04
2023-06-11T01:30:37.028Z,21.94
2023-06-11T01:33:06.871Z,21.81
2023-06-11T01:35:35.530Z,21.80
2023-06-11T01:38:04.040Z,21.98
2023-06-11T01:40:32.920Z,22.07
2023-06-11T01:43:03.316Z,22.02
2023-06-11T01:45:33.757Z,21.64
2023-06-11T01:48:02.100Z,21.83
2023-06-11T01:50:29.963Z,21.93
2023-06-11T01:52:57.763Z,21.95
2023-06-11T01:55:25.586Z,21.79
2023-06-11T01:57:53.355Z,21.69
2023-06-11T02:00:23.079Z,21.70
2023-06-11T02:02:51.178Z,21.54
2023-06-11T02:05:19.152Z,21.56
2023-06-11T02:07:47.441Z,21.52
2023-06-11T02:10:15.381Z,21.28
2023-06-11T02:12:43.208Z,21.08
2023-06-11T02:15:11.821Z,21.21
2023-06-11T02:17:41.250Z,21.22
2023-06-11T02:20:10.278Z,20.99
2023-06-11T02:22:38.044Z,21.00
2023-06-11T02:25:06.605Z,21.00
2023-06-11T02:27:34.485Z,21.04
2023-06-11T02:30:02.460Z,21.14
2023-06-11T02:32:30.473Z,21.15
2023-06-11T02:34:59.628Z,21.34
2023-06-11T02:37:27.446Z,21.32
2023-06-11T02:39:55.202Z,21.13
2023-06-11T02:42:22.928Z,21.18
2023-06-11T02:44:50.647Z,21.19
2023-06-11T02:47:18.469Z,20.96
2023-06-11T02:49:46.383Z,20.78
2023-06-11T02:52:15.629Z,20.91
2023-06-11T02:54:43.374Z,20.91
2023-06-11T02:57:11.130Z,20.84
2023-06-11T02:59:38.882Z,20.88
2023-06-11T03:02:07.139Z,20.94
2023-06-11T03:04:34.942Z,21.02
2023-06-11T03:07:02.703Z,20.96
2023-06-11T03:09:31.800Z,21.08
2023-06-11T03:11:59.529Z,21.00
2023-06-11T03:14:28.231Z,20.92
2023-06-11T03:16:56.045Z,20.87
2023-06-11T03:19:23.785Z,20.91
2023-06-11T03:21:51.608Z,21.03
2023-06-11T03:24:19.480Z,21.13
2023-06-11T03:26:48.691Z,21.26
2023-06-11T03:29:16.461Z,21.38
2023-06-11T03:31:44.911Z,21.34
2023-06-11T03:34:12.779Z,21.29
2023-06-11T03:36:40.653Z,21.40
2023-06-11T03:39:08.420Z,21.20
2023-06-11T03:41:36.240Z,21.43
2023-06-11T03:44:05.717Z,21.44
2023-06-11T03:46:33.601Z,21.38
2023-06-11T03:49:02.399Z,21.21
2023-06-11T03:51:30.238Z,21.01
2023-06-11T03:53:58.000Z,20.94
2023-06-11T03:56:25.923Z,20.90
2023-06-11T03:58:53.639Z,20.83
2023-06-11T04:01:22.888Z,21.10
2023-06-11T04:03:50.744Z,21.26
2023-06-11T04:06:20.004Z,21.22
2023-06-11T04:08:47.815Z,21.23
2023-06-11T04:11:15.534Z,21.17
2023-06-11T04:13:43.386Z,21.23
2023-06-11T04:16:11.099Z,21.32
2023-06-11T04:18:40.154Z,21.35
2023-06-11T04:21:07.953Z,21.34
2023-06-11T04:23:36.120Z,21.18
2023-06-11T04:26:03.977Z,20.92
2023-06-11T04:28:31.749Z,20.78
2023-06-11T04:30:59.673Z,20.98
2023-06-11T04:33:33.689Z,21.18
2023-06-11T04:36:06.257Z,21.40
2023-06-11T04:38:34.174Z,21.43
2023-06-11T04:41:03.572Z,21.44
2023-06-11T04:43:34.558Z,21.50
2023-06-11T04:46:05.224Z,21.56
2023-06-11T04:48:34.115Z,21.51
2023-06-11T04:51:05.429Z,21.52
2023-06-11T04:53:38.278Z,21.42
2023-06-11T04:56:06.334Z,21.19
2023-06-11T04:58:34.137Z,21.33
2023-06-11T05:01:02.176Z,21.20
2023-06-11T05:03:33.009Z,21.20
2023-06-11T05:06:03.205Z,21.16
2023-06-11T05:08:33.632Z,21.13
2023-06-11T05:11:01.418Z,21.32
2023-06-11T05:13:29.497Z,21.47
2023-06-11T05:15:58.345Z,21.49
2023-06-11T05:18:28.041Z,21.37
2023-06-11T05:20:56.168Z,21.52
2023-06-11T05:23:30.239Z,21.28
2023-06-11T05:26:02.852Z,21.29
2023-06-11T05:28:30.715Z,21.43
2023-06-11T05:31:00.559Z,21.54
2023-06-11T05:33:29.429Z,21.43
2023-06-11T05:35:57.186Z,21.38
2023-06-11T05:38:25.679Z,21.15
2023-06-11T05:40:53.476Z,20.87
2023-06-11T05:43:24.224Z,21.28
2023-06-11T05:45:52.116Z,21.34
2023-06-11T05:48:20.013Z,21.43
2023-06-11T05:50:47.777Z,21.27
2023-06-11T05:53:15.518Z,21.44
2023-06-11T05:55:43.287Z,21.75
2023-06-11T05:58:11.157Z,21.86
2023-06-11T06:00:40.276Z,21.85
2023-06-11T06:03:08.134Z,21.84
2023-06-11T06:05:36.010Z,21.83
2023-06-11T06:08:03.932Z,21.54
2023-06-11T06:10:31.669Z,21.94
2023-06-11T06:12:59.470Z,22.32
2023-06-11T06:15:27.213Z,22.50
2023-06-11T06:17:56.378Z,22.33
2023-06-11T06:20:24.219Z,22.23
2023-06-11T06:22:51.946Z,22.13
2023-06-11T06:25:19.791Z,22.09
2023-06-11T06:27:47.543Z,22.18
2023-06-11T06:30:16.300Z,22.12
2023-06-11T06:32:44.533Z,22.62
2023-06-11T06:35:13.974Z,22.51
2023-06-11T06:37:41.782Z,22.38
2023-06-11T06:40:12.604Z,22.84
2023-06-11T06:42:40.562Z,23.21
2023-06-11T06:45:09.798Z,23.21
2023-06-11T06:47:37.874Z,22.78
2023-06-11T06:50:07.244Z,22.81
2023-06-11T06:52:36.344Z,22.67
2023-06-11T06:55:04.374Z,22.62
2023-06-11T06:57:32.157Z,22.96
2023-06-11T07:00:00.245Z,23.46
2023-06-11T07:02:28.074Z,23.60
2023-06-11T07:04:55.869Z,23.29
2023-06-11T07:07:25.512Z,22.78
2023-06-11T07:09:54.741Z,23.12
2023-06-11T07:12:22.537Z,23.44
2023-06-11T07:14:50.322Z,23.27
2023-06-11T07:17:19.375Z,23.30
2023-06-11T07:19:47.152Z,22.79
2023-06-11T07:22:14.903Z,23.04
2023-06-11T07:24:47.700Z,23.32
2023-06-11T07:27:17.085Z,23.71
2023-06-11T07:29:44.866Z,23.19
2023-06-11T07:32:12.594Z,23.13
2023-06-11T07:34:41.199Z,22.83
2023-06-11T07:37:09.597Z,22.49
2023-06-11T07:39:37.362Z,23.03
2023-06-11T07:42:06.526Z,22.75
2023-06-11T07:44:35.722Z,23.16
2023-06-11T07:47:03.563Z,22.90
2023-06-11T07:49:31.429Z,23.58
2023-06-11T07:51:59.169Z,23.64
2023-06-11T07:54:26.978Z,23.43
2023-06-11T07:56:54.733Z,23.31
2023-06-11T07:59:22.630Z,23.71
2023-06-11T08:01:52.095Z,23.78
2023-06-11T08:04:19.851Z,24.19
2023-06-11T08:06:47.607Z,24.34
2023-06-11T08:09:15.422Z,23.39
2023-06-11T08:11:43.914Z,23.39
2023-06-11T08:14:11.685Z,24.16
2023-06-11T08:16:39.522Z,24.29
2023-06-11T08:19:08.599Z,24.45
2023-06-11T08:21:36.454Z,24.69
2023-06-11T08:24:04.816Z,25.00
2023-06-11T08:26:32.713Z,25.13
2023-06-11T08:29:01.189Z,25.23
2023-06-11T08:31:29.288Z,24.89
2023-06-11T08:33:57.097Z,25.03
2023-06-11T08:36:26.922Z,25.21
2023-06-11T08:38:54.678Z,25.30
2023-06-11T08:41:23.376Z,24.85
2023-06-11T08:43:51.261Z,25.23
2023-06-11T08:46:24.416Z,25.31
2023-06-11T08:48:59.975Z,24.22
2023-06-11T08:51:36.270Z,24.96
2023-06-11T08:54:04.200Z,24.87
2023-06-11T08:56:31.970Z,24.45
2023-06-11T08:59:01.757Z,24.70
2023-06-11T09:01:31.168Z,23.99
2023-06-11T09:03:59.168Z,24.18
2023-06-11T09:06:27.673Z,25.37
2023-06-11T09:09:01.307Z,25.54
2023-06-11T09:11:36.511Z,25.74
2023-06-11T09:14:05.230Z,25.21
2023-06-11T09:16:41.193Z,24.98
2023-06-11T09:19:10.959Z,25.23
2023-06-11T09:21:39.283Z,24.58
2023-06-11T09:24:11.919Z,25.18
2023-06-11T09:26:39.716Z,25.24
2023-06-11T09:29:07.536Z,25.83
2023-06-11T09:31:35.374Z,26.23
2023-06-11T09:34:04.471Z,25.33
2023-06-11T09:36:33.279Z,23.96
2023-06-11T09:39:01.782Z,24.78
2023-06-11T09:41:31.415Z,24.56
2023-06-11T09:44:01.609Z,24.82
2023-06-11T09:46:29.792Z,24.65
2023-06-11T09:48:58.018Z,25.13
2023-06-11T09:51:26.274Z,25.56
2023-06-11T09:53:54.878Z,26.01
2023-06-11T09:56:23.094Z,25.71
2023-06-11T09:58:53.071Z,26.04
2023-06-11T10:01:21.524Z,26.77
2023-06-11T10:03:49.467Z,26.63
2023-06-11T10:06:26.601Z,26.38
2023-06-11T10:08:57.880Z,25.54
2023-06-11T10:11:27.022Z,25.15
2023-06-11T10:14:00.737Z,25.66
2023-06-11T10:16:29.871Z,26.57
2023-06-11T10:19:07.159Z,26.51
2023-06-11T10:21:37.806Z,26.21
2023-06-11T10:24:06.181Z,26.26
2023-06-11T10:26:37.520Z,26.37
2023-06-11T10:29:12.761Z,25.05
2023-06-11T10:31:43.147Z,26.00
2023-06-11T10:34:15.550Z,25.88
2023-06-11T10:36:43.453Z,26.72
2023-06-11T10:39:12.545Z,27.17
2023-06-11T10:41:40.927Z,26.82
2023-06-11T10:44:12.207Z,26.39
2023-06-11T10:46:48.372Z,26.80
2023-06-11T10:49:16.647Z,27.17
2023-06-11T10:51:44.447Z,27.18
2023-06-11T10:54:12.263Z,27.41
2023-06-11T10:56:40.031Z,27.42
2023-06-11T10:59:10.304Z,27.67
2023-06-11T11:01:39.566Z,27.98
2023-06-11T11:04:07.737Z,27.26
2023-06-11T11:06:38.080Z,27.36
2023-06-11T11:09:05.902Z,27.45
2023-06-11T11:11:34.936Z,27.51
2023-06-11T11:14:04.692Z,26.48
2023-06-11T11:16:32.631Z,25.84
2023-06-11T11:19:01.831Z,26.53
2023-06-11T11:21:30.780Z,26.92
2023-06-11T11:23:58.752Z,26.09
2023-06-11T11:26:27.631Z,26.73
2023-06-11T11:28:55.573Z,27.24
2023-06-11T11:31:23.667Z,27.53
2023-06-11T11:33:51.842Z,27.07
2023-06-11T11:36:21.066Z,27.61
2023-06-11T11:38:49.228Z,27.85
2023-06-11T11:41:17.032Z,28.17
2023-06-11T11:43:45.885Z,27.82
2023-06-11T11:46:18.249Z,27.94
2023-06-11T11:48:46.405Z,28.65
2023-06-11T11:51:16.319Z,29.21
2023-06-11T11:53:45.839Z,28.14
2023-06-11T11:56:14.711Z,28.00
2023-06-11T11:58:43.683Z,28.45
2023-06-11T12:01:22.828Z,27.91
2023-06-11T12:03:58.179Z,28.55
2023-06-11T12:06:26.401Z,29.14
2023-06-11T12:08:55.649Z,29.71
2023-06-11T12:11:23.560Z,29.51
2023-06-11T12:13:51.375Z,28.49
2023-06-11T12:16:19.172Z,29.14
2023-06-11T12:18:46.928Z,29.59
2023-06-11T12:21:14.787Z,29.26
2023-06-11T12:23:42.515Z,29.94
2023-06-11T12:26:11.649Z,29.54
2023-06-11T12:28:39.612Z,29.13
2023-06-11T12:31:07.803Z,29.09
2023-06-11T12:33:35.871Z,29.53
2023-06-11T12:36:03.613Z,28.80
2023-06-11T12:38:31.358Z,29.52
2023-06-11T12:40:59.243Z,29.11
2023-06-11T12:43:28.358Z,29.60
2023-06-11T12:45:56.138Z,28.68
2023-06-11T12:48:23.916Z,29.50
2023-06-11T12:50:51.810Z,29.42
2023-06-11T12:53:19.575Z,29.05
2023-06-11T12:55:47.446Z,28.94
2023-06-11T12:58:15.276Z,28.87
2023-06-11T13:00:44.457Z,29.31
2023-06-11T13:03:12.252Z,29.98
2023-06-11T13:05:40.077Z,30.46
2023-06-11T13:08:07.919Z,31.06
2023-06-11T13:10:35.868Z,31.48
2023-06-11T13:13:03.849Z,32.28
2023-06-11T13:15:31.624Z,31.35
2023-06-11T13:18:00.882Z,31.10
2023-06-11T13:20:29.895Z,30.03
2023-06-11T13:22:57.736Z,29.64
2023-06-11T13:25:25.482Z,29.18
2023-06-11T13:27:53.186Z,29.54
2023-06-11T13:30:20.962Z,29.38
2023-06-11T13:32:48.919Z,29.16
2023-06-11T13:35:18.102Z,29.28
2023-06-11T13:37:45.913Z,28.86
2023-06-11T13:40:14.308Z,29.43
2023-06-11T13:42:42.323Z,29.06
2023-06-11T13:45:10.738Z,30.57
2023-06-11T13:47:38.516Z,30.83
2023-06-11T13:50:07.334Z,30.01
2023-06-11T13:52:36.462Z,29.72
2023-06-11T13:55:04.444Z,29.45
2023-06-11T13:57:32.434Z,29.51
2023-06-11T14:00:01.429Z,29.56
2023-06-11T14:02:29.331Z,29.17
2023-06-11T14:04:57.133Z,29.05
2023-06-11T14:07:24.976Z,29.63
2023-06-11T14:09:55.354Z,29.55
2023-06-11T14:12:23.494Z,30.13
2023-06-11T14:14:51.406Z,30.56
2023-06-11T14:17:19.527Z,31.27
2023-06-11T14:19:47.293Z,32.41
2023-06-11T14:22:15.428Z,32.56
2023-06-11T14:24:43.210Z,33.30
2023-06-11T14:27:12.240Z,31.43
2023-06-11T14:29:39.982Z,30.65
2023-06-11T14:32:08.825Z,30.36
2023-06-11T14:34:36.602Z,29.84
2023-06-11T14:37:04.852Z,30.15
2023-06-11T14:39:32.722Z,30.66
2023-06-11T14:42:00.794Z,31.26
2023-06-11T14:44:29.896Z,30.57
2023-06-11T14:46:57.679Z,31.67
2023-06-11T14:49:25.689Z,30.30
2023-06-11T14:51:53.544Z,30.24
2023-06-11T14:54:21.311Z,29.92
2023-06-11T14:56:49.044Z,29.71
2023-06-11T14:59:17.055Z,29.72
2023-06-11T15:01:46.300Z,29.30
2023-06-11T15:04:14.123Z,29.45
2023-06-11T15:06:42.209Z,30.49
2023-06-11T15:09:10.590Z,31.21
2023-06-11T15:11:38.536Z,31.59
2023-06-11T15:14:06.726Z,32.28
2023-06-11T15:16:34.604Z,33.07
2023-06-11T15:19:03.775Z,33.23
2023-06-11T15:21:31.757Z,32.57
2023-06-11T15:23:59.507Z,31.59
2023-06-11T15:26:27.238Z,31.23
2023-06-11T15:28:54.972Z,30.63
2023-06-11T15:31:22.819Z,29.93
2023-06-11T15:33:50.655Z,29.65
2023-06-11T15:36:21.019Z,29.74
2023-06-11T15:38:48.812Z,29.76
2023-06-11T15:41:16.627Z,29.94
2023-06-11T15:43:44.425Z,29.75
2023-06-11T15:46:12.365Z,29.85
2023-06-11T15:48:40.182Z,29.65
2023-06-11T15:51:07.914Z,29.31
2023-06-11T15:53:37.047Z,29.69
2023-06-11T15:56:05.065Z,29.05
2023-06-11T15:58:32.830Z,29.66
2023-06-11T16:01:00.611Z,30.09
2023-06-11T16:03:28.472Z,30.37
2023-06-11T16:05:56.283Z,30.61
2023-06-11T16:08:24.083Z,29.26
2023-06-11T16:10:53.195Z,28.83
2023-06-11T16:13:20.955Z,28.33
2023-06-11T16:15:48.774Z,27.69
2023-06-11T16:18:16.634Z,27.50
2023-06-11T16:20:44.476Z,27.48
2023-06-11T16:23:12.254Z,27.49
2023-06-11T16:25:40.063Z,27.52
2023-06-11T16:28:09.164Z,28.23
2023-06-11T16:30:36.961Z,27.87
2023-06-11T16:33:04.857Z,27.66
2023-06-11T16:35:32.799Z,27.92
2023-06-11T16:38:00.625Z,27.58
2023-06-11T16:40:28.329Z,27.93
2023-06-11T16:42:56.141Z,27.94
2023-06-11T16:45:25.250Z,28.33
2023-06-11T16:47:53.040Z,28.68
2023-06-11T16:50:20.818Z,27.95
2023-06-11T16:52:52.721Z,27.85
2023-06-11T16:55:21.831Z,28.01
2023-06-11T16:57:50.313Z,27.94
2023-06-11T17:00:18.995Z,28.02
2023-06-11T17:02:50.426Z,28.15
2023-06-11T17:05:18.606Z,28.13
2023-06-11T17:07:46.348Z,27.74
2023-06-11T17:10:14.352Z,27.67
2023-06-11T17:12:46.833Z,27.35
2023-06-11T17:15:17.215Z,27.53
2023-06-11T17:17:45.526Z,27.52
2023-06-11T17:20:16.113Z,27.76
2023-06-11T17:25:33.119Z,27.36
2023-06-11T17:28:01.377Z,27.34
2023-06-11T17:30:29.251Z,27.69
2023-06-11T17:32:57.088Z,27.68
2023-06-11T17:35:24.944Z,27.42
2023-06-11T17:37:55.098Z,27.91
2023-06-11T17:40:28.394Z,27.46
2023-06-11T17:42:59.146Z,26.91
2023-06-11T17:45:29.361Z,27.69
2023-06-11T17:47:57.274Z,27.71
2023-06-11T17:50:25.963Z,27.28
2023-06-11T17:52:53.989Z,27.18
2023-06-11T17:55:21.732Z,27.15
2023-06-11T17:57:49.869Z,27.03
2023-06-11T18:00:19.555Z,26.60
2023-06-11T18:02:48.076Z,27.12
2023-06-11T18:05:15.988Z,26.54
2023-06-11T18:07:47.086Z,26.14
2023-06-11T18:10:16.202Z,26.58
2023-06-11T18:12:45.733Z,26.91
2023-06-11T18:15:31.132Z,26.16
2023-06-11T18:18:01.436Z,26.47
2023-06-11T18:20:30.020Z,25.87
2023-06-11T18:22:58.197Z,26.15
2023-06-11T18:25:26.541Z,25.55
2023-06-11T18:27:54.566Z,25.48
2023-06-11T18:30:22.806Z,25.36
2023-06-11T18:32:50.778Z,25.02
2023-06-11T18:35:20.029Z,25.07
2023-06-11T18:37:48.245Z,25.50
2023-06-11T18:40:16.408Z,24.96
2023-06-11T18:42:44.348Z,24.80
2023-06-11T18:45:12.943Z,24.62
2023-06-11T18:47:41.126Z,25.12
2023-06-11T18:50:11.041Z,24.45
2023-06-11T18:52:40.784Z,24.18
2023-06-11T18:55:09.303Z,24.50
2023-06-11T18:57:37.062Z,25.00
2023-06-11T19:00:05.962Z,24.49
2023-06-11T19:02:33.887Z,24.20
2023-06-11T19:05:01.717Z,24.46
2023-06-11T19:07:31.215Z,24.29
2023-06-11T19:10:00.428Z,24.03
2023-06-11T19:12:28.232Z,24.35
2023-06-11T19:14:55.990Z,24.50
2023-06-11T19:17:23.918Z,24.24
2023-06-11T19:19:51.719Z,24.68
2023-06-11T19:22:19.570Z,24.88
2023-06-11T19:24:47.349Z,24.33
2023-06-11T19:27:16.773Z,23.96
2023-06-11T19:29:44.534Z,23.97
2023-06-11T19:32:12.715Z,23.56
2023-06-11T19:34:40.543Z,23.50
2023-06-11T19:37:08.488Z,23.35
2023-06-11T19:39:36.188Z,23.56
2023-06-11T19:42:04.217Z,23.43
2023-06-11T19:44:33.962Z,23.78
2023-06-11T19:47:01.790Z,24.18
2023-06-11T19:49:29.574Z,23.99
2023-06-11T19:51:57.590Z,24.36
2023-06-11T19:54:41.321Z,23.56
2023-06-11T19:57:14.227Z,23.86
2023-06-11T19:59:43.335Z,24.02
2023-06-11T20:02:11.135Z,24.03
2023-06-11T20:04:38.919Z,23.89
2023-06-11T20:07:08.059Z,24.07
2023-06-11T20:09:36.184Z,23.97
2023-06-11T20:12:07.926Z,23.75
2023-06-11T20:14:36.830Z,23.85
2023-06-11T20:17:06.424Z,23.42
2023-06-11T20:19:36.857Z,23.26
2023-06-11T20:22:05.244Z,23.40
2023-06-11T20:24:33.669Z,23.28
2023-06-11T20:27:01.471Z,23.71
2023-06-11T20:29:29.204Z,23.22
2023-06-11T20:31:57.021Z,22.97
2023-06-11T20:34:26.371Z,22.80
2023-06-11T20:36:54.149Z,22.58
2023-06-11T20:39:21.909Z,22.80
2023-06-11T20:41:49.645Z,22.78
2023-06-11T20:44:17.752Z,22.90
2023-06-11T20:46:45.519Z,22.43
2023-06-11T20:49:13.331Z,22.89
2023-06-11T20:51:42.498Z,22.50
2023-06-11T20:54:10.318Z,22.54
2023-06-11T20:56:38.042Z,22.34
2023-06-11T20:59:07.417Z,22.66
2023-06-11T21:01:36.537Z,22.42
2023-06-11T21:04:04.691Z,22.49
2023-06-11T21:06:32.582Z,22.41
2023-06-11T21:09:02.553Z,22.54
2023-06-11T21:11:30.266Z,22.57
2023-06-11T21:14:12.536Z,22.38
2023-06-11T21:16:41.260Z,22.53
2023-06-11T21:19:09.155Z,22.51
2023-06-11T21:21:37.721Z,22.54
2023-06-11T21:24:07.758Z,21.89
2023-06-11T21:26:35.802Z,21.88
2023-06-11T21:29:03.748Z,22.25
2023-06-11T21:31:31.557Z,22.14
2023-06-11T21:33:59.934Z,22.11
2023-06-11T21:36:27.700Z,22.36
2023-06-11T21:38:55.730Z,22.70
2023-06-11T21:41:24.920Z,22.62
2023-06-11T21:43:52.684Z,22.75
2023-06-11T21:46:20.603Z,22.78
2023-06-11T21:48:49.196Z,22.74
2023-06-11T21:51:17.522Z,22.80
2023-06-11T21:53:45.318Z,22.77
2023-06-11T21:56:13.338Z,22.77
2023-06-11T21:58:42.538Z,22.63
2023-06-11T22:01:10.283Z,22.82
2023-06-11T22:03:38.105Z,22.75
2023-06-11T22:06:05.967Z,22.63
2023-06-11T22:08:35.831Z,22.59
2023-06-11T22:11:03.666Z,22.76
2023-06-11T22:13:31.508Z,22.64
2023-06-11T22:16:00.683Z,22.82
2023-06-11T22:18:29.376Z,22.75
2023-06-11T22:20:57.526Z,22.80
2023-06-11T22:23:40.754Z,22.64
2023-06-11T22:26:13.048Z,22.66
2023-06-11T22:28:40.815Z,22.63
2023-06-11T22:31:09.963Z,22.69
2023-06-11T22:33:37.800Z,22.24
2023-06-11T22:36:06.280Z,22.53
2023-06-11T22:38:34.048Z,22.31
2023-06-11T22:41:01.800Z,22.00
2023-06-11T22:43:29.587Z,22.22
2023-06-11T22:45:57.349Z,22.15
2023-06-11T22:48:26.455Z,22.26
2023-06-11T22:50:54.383Z,22.44
2023-06-11T22:53:22.625Z,22.32
2023-06-11T22:55:50.392Z,22.14
2023-06-11T22:58:18.556Z,22.13
2023-06-11T23:00:46.330Z,22.07
2023-06-11T23:03:14.097Z,22.16
2023-06-11T23:05:43.274Z,21.94
2023-06-11T23:08:11.043Z,21.62
2023-06-11T23:10:38.832Z,21.60
2023-06-11T23:13:06.577Z,21.61
2023-06-11T23:15:34.334Z,21.52
2023-06-11T23:18:06.829Z,21.57
2023-06-11T23:20:35.986Z,21.52
2023-06-11T23:23:06.866Z,21.20
2023-06-11T23:25:34.888Z,21.56
2023-06-11T23:28:02.670Z,21.67
2023-06-11T23:30:30.985Z,21.07
2023-06-11T23:33:00.872Z,21.11
2023-06-11T23:35:28.824Z,21.19
2023-06-11T23:37:57.727Z,21.10
2023-06-11T23:40:26.909Z,21.05
2023-06-11T23:42:54.716Z,20.59
2023-06-11T23:45:22.528Z,20.84
2023-06-11T23:47:50.615Z,20.96
2023-06-11T23:50:18.523Z,21.11
2023-06-11T23:52:46.249Z,21.33
2023-06-11T23:55:14.163Z,21.16
2023-06-11T23:57:44.761Z,20.97
